Time;durP1;ratioP1;P1;durP2;ratioP2;P2;SDS_P1;SDS_P2;PMS_P1;PMS_P2;Temp;Humidity;BMP_temperature;BMP_pressure;BME280_temperature;BME280_humidity;BME280_pressure;Samples;Min_cycle;Max_cycle;Signal;HPM_P1;HPM_P2
2022/03/27 00:00:08;;;;;;;5.13;2.43;;;;;;;;;;4987988;28;20178;-70
2022/03/27 00:02:33;;;;;;;8.70;3.23;;;;;;;;;;4985552;28;20176;-70
2022/03/27 00:04:59;;;;;;;5.50;2.40;;;;;;;;;;4991637;28;20209;-70
2022/03/27 00:07:24;;;;;;;4.10;2.50;;;;;;;;;;4984274;28;20200;-70
2022/03/27 00:09:49;;;;;;;4.07;2.73;;;;;;;;;;4995500;28;20182;-69
2022/03/27 00:12:14;;;;;;;3.50;2.90;;;;;;;;;;4985540;28;20182;-70
2022/03/27 00:14:39;;;;;;;5.43;2.87;;;;;;;;;;4987847;28;20191;-70
2022/03/27 00:17:05;;;;;;;6.27;3.27;;;;;;;;;;4985894;28;20185;-70
2022/03/27 00:19:30;;;;;;;8.50;3.03;;;;;;;;;;4988343;28;20196;-69
2022/03/27 00:21:55;;;;;;;4.23;3.10;;;;;;;;;;4984541;28;20185;-71
2022/03/27 00:24:20;;;;;;;5.37;2.60;;;;;;;;;;4982895;28;20193;-69
2022/03/27 00:26:46;;;;;;;4.80;3.20;;;;;;;;;;4986947;28;20187;-71
2022/03/27 00:29:11;;;;;;;9.47;3.20;;;;;;;;;;4986901;28;20293;-69
2022/03/27 00:31:38;;;;;;;6.40;2.60;;;;;;;;;;4986441;28;20233;-70
2022/03/27 00:34:04;;;;;;;6.80;3.10;;;;;;;;;;4988842;28;20185;-70
2022/03/27 00:36:29;;;;;;;9.17;3.33;;;;;;;;;;4991493;28;20447;-69
2022/03/27 00:38:54;;;;;;;6.00;2.90;;;;;;;;;;4989335;28;20471;-69
2022/03/27 00:41:20;;;;;;;6.20;3.10;;;;;;;;;;4987793;28;20173;-69
2022/03/27 00:43:45;;;;;;;5.83;2.83;;;;;;;;;;4993535;28;20194;-69
2022/03/27 00:46:11;;;;;;;9.47;3.43;;;;;;;;;;4990877;28;20656;-70
2022/03/27 00:48:36;;;;;;;9.60;3.40;;;;;;;;;;4990352;28;20201;-70
2022/03/27 00:51:02;;;;;;;7.83;3.93;;;;;;;;;;4990384;28;20178;-69
2022/03/27 00:53:27;;;;;;;9.83;3.40;;;;;;;;;;4991785;28;20213;-69
2022/03/27 00:55:53;;;;;;;8.17;2.87;;;;;;;;;;4992559;28;20209;-70
2022/03/27 00:58:18;;;;;;;9.90;2.80;;;;;;;;;;4992286;28;20205;-69
2022/03/27 01:00:46;;;;;;;7.43;2.90;;;;;;;;;;4988407;28;20268;-70
2022/03/27 01:03:13;;;;;;;6.47;2.67;;;;;;;;;;4990326;28;20247;-69
2022/03/27 01:05:38;;;;;;;7.17;2.93;;;;;;;;;;4994492;28;20428;-70
2022/03/27 01:08:05;;;;;;;10.00;3.70;;;;;;;;;;4987639;28;20983;-69
2022/03/27 01:10:31;;;;;;;9.07;2.87;;;;;;;;;;4988982;28;20170;-70
2022/03/27 01:12:56;;;;;;;7.23;2.40;;;;;;;;;;4982765;28;20448;-69
2022/03/27 01:15:24;;;;;;;6.20;2.77;;;;;;;;;;5007234;28;20173;-69
2022/03/27 01:17:50;;;;;;;8.47;2.57;;;;;;;;;;5006972;23;20901;-71
2022/03/27 01:20:34;;;;;;;6.70;3.07;;;;;;;;;;5015452;28;20462;-71
2022/03/27 01:22:59;;;;;;;7.83;2.40;;;;;;;;;;5014040;28;20221;-69
2022/03/27 01:25:25;;;;;;;11.30;3.50;;;;;;;;;;5018904;28;20871;-69
2022/03/27 01:27:50;;;;;;;8.33;2.57;;;;;;;;;;5017993;28;20196;-70
2022/03/27 01:30:15;;;;;;;8.17;3.37;;;;;;;;;;5003121;28;20193;-69
2022/03/27 01:32:41;;;;;;;12.13;3.33;;;;;;;;;;5006221;28;20693;-69
2022/03/27 01:35:06;;;;;;;9.63;3.43;;;;;;;;;;5002298;28;20275;-69
2022/03/27 01:37:32;;;;;;;8.03;3.50;;;;;;;;;;5000264;28;20217;-70
2022/03/27 01:39:57;;;;;;;10.93;3.57;;;;;;;;;;5001253;28;20255;-69
2022/03/27 01:42:22;;;;;;;7.50;2.97;;;;;;;;;;5004265;28;20181;-69
2022/03/27 01:44:47;;;;;;;10.77;3.37;;;;;;;;;;5005928;28;20239;-69
2022/03/27 01:47:13;;;;;;;10.27;2.93;;;;;;;;;;5007561;28;20203;-69
2022/03/27 01:49:40;;;;;;;8.87;3.47;;;;;;;;;;5002429;28;20189;-69
2022/03/27 01:52:05;;;;;;;6.63;3.10;;;;;;;;;;5001910;28;20946;-69
2022/03/27 01:54:30;;;;;;;7.23;2.83;;;;;;;;;;5001360;28;20443;-69
2022/03/27 01:56:56;;;;;;;5.90;2.73;;;;;;;;;;5005172;28;20191;-69
2022/03/27 01:59:22;;;;;;;11.77;3.10;;;;;;;;;;5001427;28;20308;-69
2022/03/27 02:01:47;;;;;;;8.87;2.90;;;;;;;;;;5003142;28;20181;-69
2022/03/27 02:04:13;;;;;;;10.43;3.00;;;;;;;;;;5006408;28;20288;-69
2022/03/27 02:06:39;;;;;;;8.93;3.33;;;;;;;;;;5004630;28;21068;-69
2022/03/27 02:09:05;;;;;;;8.30;3.40;;;;;;;;;;5004166;28;20193;-69
2022/03/27 02:11:30;;;;;;;12.33;3.43;;;;;;;;;;5002063;28;20927;-69
2022/03/27 02:13:56;;;;;;;8.00;2.80;;;;;;;;;;5003219;28;20193;-69
2022/03/27 02:16:21;;;;;;;9.50;3.50;;;;;;;;;;5004305;28;20597;-69
2022/03/27 02:18:46;;;;;;;20.03;3.57;;;;;;;;;;5003130;28;20225;-69
2022/03/27 02:21:12;;;;;;;9.33;2.60;;;;;;;;;;5001717;28;20184;-69
2022/03/27 02:23:37;;;;;;;11.90;3.43;;;;;;;;;;5004335;28;20211;-70
2022/03/27 02:26:03;;;;;;;9.03;3.53;;;;;;;;;;5003997;28;20764;-69
2022/03/27 02:28:28;;;;;;;10.67;3.63;;;;;;;;;;5002768;28;20211;-70
2022/03/27 02:30:53;;;;;;;10.10;3.10;;;;;;;;;;5002521;28;20183;-69
2022/03/27 02:33:19;;;;;;;10.37;3.30;;;;;;;;;;5004732;28;20170;-69
2022/03/27 02:35:45;;;;;;;11.20;3.43;;;;;;;;;;5003952;28;20273;-69
2022/03/27 02:38:10;;;;;;;10.27;3.30;;;;;;;;;;5003132;28;20231;-69
2022/03/27 02:40:36;;;;;;;9.27;3.20;;;;;;;;;;5003416;28;20184;-69
2022/03/27 02:43:01;;;;;;;10.07;4.00;;;;;;;;;;4999481;28;20189;-69
2022/03/27 02:45:27;;;;;;;7.23;2.70;;;;;;;;;;5002826;28;20540;-69
2022/03/27 02:47:53;;;;;;;8.57;2.90;;;;;;;;;;5001911;28;20215;-69
2022/03/27 02:50:19;;;;;;;7.40;3.37;;;;;;;;;;5001775;28;20430;-69
2022/03/27 02:52:44;;;;;;;10.47;3.60;;;;;;;;;;5000922;28;20436;-69
2022/03/27 02:55:10;;;;;;;8.73;2.83;;;;;;;;;;5000914;28;20192;-69
2022/03/27 02:57:36;;;;;;;10.50;3.50;;;;;;;;;;5001701;28;20267;-68
2022/03/27 03:00:01;;;;;;;11.03;3.30;;;;;;;;;;5000782;28;20935;-69
2022/03/27 03:02:26;;;;;;;13.23;3.33;;;;;;;;;;5001406;28;20664;-69
2022/03/27 03:04:52;;;;;;;8.70;2.50;;;;;;;;;;5001083;28;20212;-69
2022/03/27 03:07:18;;;;;;;13.37;3.40;;;;;;;;;;5002117;28;20190;-69
2022/03/27 03:09:43;;;;;;;10.57;3.30;;;;;;;;;;5003594;28;20208;-69
2022/03/27 03:12:09;;;;;;;13.43;3.57;;;;;;;;;;4998635;28;20217;-69
2022/03/27 03:14:34;;;;;;;11.67;3.60;;;;;;;;;;5001024;28;20190;-69
2022/03/27 03:17:00;;;;;;;10.03;3.00;;;;;;;;;;5001875;28;20197;-69
2022/03/27 03:19:25;;;;;;;15.20;4.00;;;;;;;;;;5003107;28;20692;-69
2022/03/27 03:21:50;;;;;;;22.07;3.63;;;;;;;;;;5001064;28;20554;-69
2022/03/27 03:24:16;;;;;;;11.90;3.57;;;;;;;;;;4999923;28;20200;-69
2022/03/27 03:26:41;;;;;;;16.07;3.70;;;;;;;;;;5000048;28;20184;-69
2022/03/27 03:29:06;;;;;;;13.93;4.40;;;;;;;;;;5000568;28;20597;-69
2022/03/27 03:31:32;;;;;;;18.00;3.90;;;;;;;;;;5003747;28;20184;-70
2022/03/27 03:33:57;;;;;;;15.87;3.60;;;;;;;;;;5002449;28;20185;-69
2022/03/27 03:36:22;;;;;;;14.80;4.20;;;;;;;;;;4999900;28;20189;-69
2022/03/27 03:38:47;;;;;;;14.53;3.90;;;;;;;;;;5002105;28;20209;-69
2022/03/27 03:41:13;;;;;;;14.73;4.20;;;;;;;;;;4999847;28;20196;-69
2022/03/27 03:43:38;;;;;;;13.53;4.30;;;;;;;;;;5001460;28;20204;-69
2022/03/27 03:46:04;;;;;;;19.47;4.73;;;;;;;;;;4999359;28;20193;-69
2022/03/27 03:48:29;;;;;;;15.30;3.63;;;;;;;;;;5001031;28;20193;-69
2022/03/27 03:50:55;;;;;;;16.97;4.30;;;;;;;;;;5004713;28;20183;-70
2022/03/27 03:53:20;;;;;;;17.80;4.10;;;;;;;;;;5001752;28;20226;-69
2022/03/27 03:55:45;;;;;;;10.97;3.57;;;;;;;;;;4997520;28;20185;-69
2022/03/27 03:58:10;;;;;;;19.80;4.70;;;;;;;;;;4999650;28;20204;-69
2022/03/27 04:00:36;;;;;;;14.00;3.47;;;;;;;;;;4996994;28;20192;-69
2022/03/27 04:03:02;;;;;;;19.80;5.13;;;;;;;;;;5001844;28;20181;-69
2022/03/27 04:05:28;;;;;;;12.27;3.57;;;;;;;;;;5003037;28;20213;-69
2022/03/27 04:07:53;;;;;;;17.30;3.77;;;;;;;;;;5000630;28;21640;-69
2022/03/27 04:10:19;;;;;;;12.80;3.60;;;;;;;;;;4998572;28;20844;-69
2022/03/27 04:12:44;;;;;;;14.83;4.30;;;;;;;;;;5000307;28;20546;-69
2022/03/27 04:15:09;;;;;;;17.07;5.00;;;;;;;;;;5003614;28;20181;-69
2022/03/27 04:17:41;;;;;;;15.60;4.17;;;;;;;;;;5005542;28;20207;-69
2022/03/27 04:20:06;;;;;;;12.73;4.17;;;;;;;;;;5005957;28;20672;-69
2022/03/27 04:22:31;;;;;;;9.30;2.93;;;;;;;;;;5004985;28;20424;-68
2022/03/27 04:24:57;;;;;;;15.63;4.23;;;;;;;;;;5005093;28;20568;-69
2022/03/27 04:27:23;;;;;;;13.47;4.10;;;;;;;;;;5004854;28;21299;-69
2022/03/27 04:29:49;;;;;;;10.07;3.23;;;;;;;;;;5000838;28;20243;-69
2022/03/27 04:32:15;;;;;;;10.40;3.70;;;;;;;;;;5005096;28;20428;-69
2022/03/27 04:34:40;;;;;;;13.07;3.70;;;;;;;;;;5004667;28;20428;-69
2022/03/27 04:37:05;;;;;;;12.77;3.30;;;;;;;;;;5002366;28;20207;-69
2022/03/27 04:39:31;;;;;;;12.50;3.13;;;;;;;;;;5005362;28;20288;-69
2022/03/27 04:41:56;;;;;;;11.30;4.03;;;;;;;;;;5002970;28;20173;-69
2022/03/27 04:44:21;;;;;;;11.30;3.40;;;;;;;;;;5002994;28;20197;-69
2022/03/27 04:46:46;;;;;;;12.40;3.57;;;;;;;;;;5002431;28;20621;-69
2022/03/27 04:49:13;;;;;;;12.50;4.07;;;;;;;;;;5004730;28;20185;-69
2022/03/27 04:51:38;;;;;;;11.50;3.87;;;;;;;;;;5004320;28;20265;-69
2022/03/27 04:54:04;;;;;;;11.80;4.37;;;;;;;;;;5003950;28;20515;-69
2022/03/27 04:56:31;;;;;;;11.23;2.97;;;;;;;;;;5002887;28;20177;-70
2022/03/27 04:58:56;;;;;;;10.80;3.57;;;;;;;;;;5003834;28;20623;-69
2022/03/27 05:01:21;;;;;;;11.93;3.73;;;;;;;;;;5004444;28;20507;-69
2022/03/27 05:03:47;;;;;;;9.63;3.00;;;;;;;;;;5004420;28;20213;-69
2022/03/27 05:06:12;;;;;;;12.00;3.77;;;;;;;;;;5003721;28;20256;-69
2022/03/27 05:08:37;;;;;;;17.23;4.57;;;;;;;;;;5002273;28;20700;-70
2022/03/27 05:11:03;;;;;;;15.17;3.77;;;;;;;;;;5000179;28;20185;-69
2022/03/27 05:13:28;;;;;;;12.90;3.90;;;;;;;;;;5003013;28;20532;-69
2022/03/27 05:15:53;;;;;;;23.77;5.07;;;;;;;;;;5003093;28;20212;-69
2022/03/27 05:18:19;;;;;;;13.97;4.30;;;;;;;;;;5001181;28;20209;-70
2022/03/27 05:20:45;;;;;;;18.77;5.17;;;;;;;;;;5004350;28;20173;-69
2022/03/27 05:23:10;;;;;;;18.60;4.53;;;;;;;;;;5005665;28;20225;-71
2022/03/27 05:25:48;;;;;;;17.53;4.33;;;;;;;;;;5007029;28;20181;-70
2022/03/27 05:28:16;;;;;;;20.37;4.67;;;;;;;;;;5005568;28;21334;-69
2022/03/27 05:30:43;;;;;;;17.23;4.60;;;;;;;;;;5006479;28;20511;-69
2022/03/27 05:33:08;;;;;;;20.17;5.00;;;;;;;;;;5005810;28;21033;-69
2022/03/27 05:35:34;;;;;;;16.27;5.83;;;;;;;;;;4999722;28;20447;-69
2022/03/27 05:37:59;;;;;;;20.10;4.90;;;;;;;;;;5006713;28;20197;-69
2022/03/27 05:40:24;;;;;;;20.10;5.33;;;;;;;;;;5005950;28;20169;-69
2022/03/27 05:42:50;;;;;;;18.23;5.70;;;;;;;;;;5006793;28;20173;-70
2022/03/27 05:45:16;;;;;;;19.40;5.10;;;;;;;;;;5007748;28;20219;-70
2022/03/27 05:47:42;;;;;;;17.20;6.23;;;;;;;;;;5006071;28;20451;-69
2022/03/27 05:50:08;;;;;;;24.00;5.40;;;;;;;;;;5007659;28;20177;-69
2022/03/27 05:52:34;;;;;;;22.90;5.80;;;;;;;;;;5005985;28;20191;-68
2022/03/27 05:54:59;;;;;;;27.57;6.50;;;;;;;;;;5008328;28;20440;-69
2022/03/27 05:57:24;;;;;;;24.47;5.67;;;;;;;;;;5004228;28;20268;-69
2022/03/27 05:59:50;;;;;;;20.23;5.83;;;;;;;;;;5007710;28;20189;-70
2022/03/27 06:02:15;;;;;;;24.10;6.27;;;;;;;;;;5008048;28;20177;-69
2022/03/27 06:04:41;;;;;;;18.80;5.33;;;;;;;;;;5004064;28;20291;-69
2022/03/27 06:07:06;;;;;;;23.20;6.23;;;;;;;;;;5006434;28;20177;-69
2022/03/27 06:09:33;;;;;;;20.40;5.23;;;;;;;;;;4999340;28;20287;-69
2022/03/27 06:11:58;;;;;;;17.00;4.83;;;;;;;;;;5005261;28;20185;-69
2022/03/27 06:14:23;;;;;;;18.87;5.50;;;;;;;;;;5001287;28;20486;-69
2022/03/27 06:16:49;;;;;;;20.47;6.17;;;;;;;;;;5003827;28;20192;-69
2022/03/27 06:19:14;;;;;;;24.30;5.70;;;;;;;;;;5006932;28;20216;-69
2022/03/27 06:21:39;;;;;;;21.70;5.50;;;;;;;;;;5002527;28;20181;-70
2022/03/27 06:24:05;;;;;;;21.77;5.37;;;;;;;;;;5004325;28;20413;-69
2022/03/27 06:26:30;;;;;;;27.43;6.00;;;;;;;;;;5003131;28;20173;-69
2022/03/27 06:28:55;;;;;;;22.97;5.17;;;;;;;;;;5003624;28;20284;-69
2022/03/27 06:31:21;;;;;;;22.83;5.60;;;;;;;;;;5004332;28;20653;-69
2022/03/27 06:33:46;;;;;;;15.77;5.50;;;;;;;;;;5003518;28;20213;-70
2022/03/27 06:36:12;;;;;;;28.30;5.50;;;;;;;;;;5003668;28;20177;-69
2022/03/27 06:38:38;;;;;;;20.57;4.87;;;;;;;;;;5001074;28;20201;-69
2022/03/27 06:41:03;;;;;;;20.97;6.27;;;;;;;;;;5006556;28;20530;-69
2022/03/27 06:43:29;;;;;;;16.50;5.27;;;;;;;;;;4999855;28;20467;-69
2022/03/27 06:45:54;;;;;;;24.00;5.30;;;;;;;;;;5005196;28;20235;-69
2022/03/27 06:48:19;;;;;;;21.23;6.23;;;;;;;;;;5001340;28;20256;-69
2022/03/27 06:50:45;;;;;;;17.77;5.20;;;;;;;;;;5004785;28;20177;-69
2022/03/27 06:53:11;;;;;;;21.87;5.60;;;;;;;;;;5003843;28;20196;-69
2022/03/27 06:55:36;;;;;;;24.97;6.13;;;;;;;;;;5003238;28;20192;-69
2022/03/27 06:58:01;;;;;;;25.47;6.47;;;;;;;;;;4998360;28;20463;-70
2022/03/27 07:03:10;;;;;;;25.03;5.33;;;;;;;;;;4999455;28;20175;-69
2022/03/27 07:05:36;;;;;;;21.43;6.53;;;;;;;;;;4995084;28;20957;-69
2022/03/27 07:08:09;;;;;;;18.30;5.30;;;;;;;;;;5004683;28;20681;-68
2022/03/27 07:10:36;;;;;;;25.53;6.07;;;;;;;;;;4997479;28;20419;-70
2022/03/27 07:13:02;;;;;;;17.67;5.40;;;;;;;;;;4999681;28;20428;-69
2022/03/27 07:15:27;;;;;;;20.90;6.70;;;;;;;;;;5003091;28;20420;-69
2022/03/27 07:17:53;;;;;;;28.50;5.10;;;;;;;;;;5015192;22;20478;-69
2022/03/27 07:20:20;;;;;;;17.83;5.67;;;;;;;;;;4983672;28;20939;-67
2022/03/27 07:22:45;;;;;;;23.03;6.27;;;;;;;;;;4993118;28;20292;-67
2022/03/27 07:25:11;;;;;;;19.77;5.60;;;;;;;;;;4988268;28;20470;-67
2022/03/27 07:27:37;;;;;;;16.00;5.07;;;;;;;;;;4995272;28;20279;-68
2022/03/27 07:30:04;;;;;;;14.30;4.50;;;;;;;;;;4969985;28;20205;-68
2022/03/27 07:32:29;;;;;;;23.97;5.90;;;;;;;;;;4980393;28;20433;-68
2022/03/27 07:34:54;;;;;;;26.10;5.50;;;;;;;;;;4980976;28;20471;-68
2022/03/27 07:37:19;;;;;;;15.83;5.23;;;;;;;;;;4978866;28;20186;-69
2022/03/27 07:39:44;;;;;;;19.10;5.23;;;;;;;;;;4980010;28;20216;-68
2022/03/27 07:42:10;;;;;;;18.70;5.20;;;;;;;;;;4967658;28;20229;-69
2022/03/27 07:44:35;;;;;;;19.77;5.40;;;;;;;;;;4977938;28;22268;-69
2022/03/27 07:47:01;;;;;;;15.00;4.93;;;;;;;;;;4979217;28;20268;-69
2022/03/27 07:49:26;;;;;;;16.93;5.30;;;;;;;;;;4985790;28;20284;-69
2022/03/27 07:51:53;;;;;;;16.30;4.90;;;;;;;;;;4983139;28;20294;-68
2022/03/27 07:54:19;;;;;;;18.60;4.80;;;;;;;;;;4979002;28;20669;-68
2022/03/27 07:56:44;;;;;;;21.10;5.40;;;;;;;;;;4980728;28;20425;-68
2022/03/27 07:59:09;;;;;;;24.40;5.70;;;;;;;;;;4978901;28;20205;-67
2022/03/27 08:01:35;;;;;;;19.87;4.40;;;;;;;;;;4974638;28;20182;-69
2022/03/27 08:04:00;;;;;;;15.10;4.47;;;;;;;;;;4981631;28;20205;-68
2022/03/27 08:06:26;;;;;;;18.77;5.93;;;;;;;;;;4980221;28;20437;-68
2022/03/27 08:08:51;;;;;;;20.20;5.00;;;;;;;;;;4982992;28;20210;-69
2022/03/27 08:11:16;;;;;;;17.80;5.07;;;;;;;;;;4975945;28;20205;-69
2022/03/27 08:13:43;;;;;;;15.97;5.60;;;;;;;;;;4975828;28;20182;-69
2022/03/27 08:16:08;;;;;;;18.67;4.47;;;;;;;;;;4977563;28;20182;-68
2022/03/27 08:18:34;;;;;;;18.47;4.87;;;;;;;;;;4973022;28;20483;-67
2022/03/27 08:20:59;;;;;;;21.63;5.63;;;;;;;;;;4977519;28;20191;-67
2022/03/27 08:23:24;;;;;;;15.10;5.53;;;;;;;;;;4976578;28;20462;-69
2022/03/27 08:28:33;;;;;;;15.43;5.03;;;;;;;;;;4978635;28;20299;-68
2022/03/27 08:30:59;;;;;;;18.90;5.70;;;;;;;;;;4972702;28;20979;-68
2022/03/27 08:33:24;;;;;;;14.30;4.70;;;;;;;;;;4981994;28;20277;-68
2022/03/27 08:35:49;;;;;;;21.57;5.63;;;;;;;;;;4978615;28;20204;-68
2022/03/27 08:38:16;;;;;;;16.23;5.10;;;;;;;;;;4980983;28;20286;-68
2022/03/27 08:40:42;;;;;;;11.00;4.47;;;;;;;;;;4973281;28;20662;-67
2022/03/27 08:43:15;;;;;;;20.20;5.17;;;;;;;;;;4980544;28;20456;-67
2022/03/27 08:45:40;;;;;;;10.80;3.90;;;;;;;;;;4980203;28;20441;-67
2022/03/27 08:48:07;;;;;;;20.40;4.60;;;;;;;;;;4979738;28;20536;-67
2022/03/27 08:50:36;;;;;;;24.10;5.10;;;;;;;;;;4979580;28;20264;-67
2022/03/27 08:53:04;;;;;;;19.27;5.17;;;;;;;;;;4976517;28;20461;-67
2022/03/27 08:55:49;;;;;;;13.67;4.10;;;;;;;;;;4977011;28;20435;-69
2022/03/27 08:58:14;;;;;;;18.77;5.90;;;;;;;;;;4973770;28;20480;-68
2022/03/27 09:00:40;;;;;;;14.27;4.60;;;;;;;;;;4971901;28;20523;-68
2022/03/27 09:03:06;;;;;;;16.87;5.10;;;;;;;;;;4982497;28;20181;-67
2022/03/27 09:05:35;;;;;;;20.63;4.40;;;;;;;;;;4979821;28;20226;-69
2022/03/27 09:08:02;;;;;;;15.20;4.90;;;;;;;;;;4983448;28;20539;-68
2022/03/27 09:10:29;;;;;;;13.03;4.30;;;;;;;;;;4985051;28;20984;-69
2022/03/27 09:12:55;;;;;;;18.60;4.90;;;;;;;;;;4995434;28;20561;-68
2022/03/27 09:15:20;;;;;;;18.37;4.97;;;;;;;;;;4984230;28;20436;-68
2022/03/27 09:17:59;;;;;;;15.10;4.23;;;;;;;;;;4983977;28;20432;-67
2022/03/27 09:20:44;;;;;;;13.13;4.50;;;;;;;;;;4981667;28;20532;-68
2022/03/27 09:23:14;;;;;;;15.23;4.17;;;;;;;;;;4982884;28;20515;-65
2022/03/27 09:25:50;;;;;;;13.20;4.10;;;;;;;;;;4974526;28;20439;-69
2022/03/27 09:28:22;;;;;;;13.30;4.80;;;;;;;;;;4981943;28;20440;-70
2022/03/27 09:30:47;;;;;;;16.13;4.83;;;;;;;;;;4982198;28;20497;-70
2022/03/27 09:33:28;;;;;;;12.90;4.40;;;;;;;;;;4974737;28;20425;-70
2022/03/27 09:36:03;;;;;;;15.40;4.03;;;;;;;;;;4976413;28;20181;-69
2022/03/27 09:38:28;;;;;;;18.00;4.90;;;;;;;;;;4975309;28;20460;-71
2022/03/27 09:40:54;;;;;;;13.70;4.20;;;;;;;;;;4979343;28;20826;-69
2022/03/27 09:43:21;;;;;;;17.23;4.90;;;;;;;;;;4976592;28;20181;-69
2022/03/27 09:45:58;;;;;;;11.77;4.03;;;;;;;;;;4972729;28;20527;-69
2022/03/27 09:48:23;;;;;;;10.77;3.60;;;;;;;;;;4975962;28;20451;-69
2022/03/27 09:50:51;;;;;;;16.53;4.13;;;;;;;;;;4981099;28;20433;-69
2022/03/27 09:53:19;;;;;;;9.67;3.53;;;;;;;;;;4986782;28;20182;-69
2022/03/27 09:55:45;;;;;;;14.53;4.10;;;;;;;;;;4987151;28;20925;-69
2022/03/27 09:58:12;;;;;;;13.20;3.80;;;;;;;;;;4988185;28;20473;-69
2022/03/27 10:00:38;;;;;;;14.13;4.10;;;;;;;;;;4988090;28;20228;-69
2022/03/27 10:03:10;;;;;;;13.60;3.90;;;;;;;;;;4988204;28;20935;-69
2022/03/27 10:05:36;;;;;;;12.67;4.13;;;;;;;;;;4987396;28;20181;-69
2022/03/27 10:08:02;;;;;;;11.93;4.07;;;;;;;;;;4984713;28;20452;-69
2022/03/27 10:10:28;;;;;;;11.20;3.37;;;;;;;;;;4986491;28;20166;-69
2022/03/27 10:12:55;;;;;;;12.40;3.70;;;;;;;;;;4985516;28;20519;-69
2022/03/27 10:15:21;;;;;;;10.87;3.50;;;;;;;;;;4986401;28;20584;-69
2022/03/27 10:17:51;;;;;;;10.87;3.80;;;;;;;;;;4989415;28;20468;-69
2022/03/27 10:20:18;;;;;;;10.40;3.27;;;;;;;;;;4983393;28;20432;-69
2022/03/27 10:22:44;;;;;;;8.63;3.20;;;;;;;;;;4988766;28;20973;-69
2022/03/27 10:25:11;;;;;;;16.90;4.13;;;;;;;;;;4985917;28;21042;-69
2022/03/27 10:27:37;;;;;;;9.10;3.20;;;;;;;;;;4989998;28;20413;-69
2022/03/27 10:30:03;;;;;;;7.93;2.93;;;;;;;;;;4988323;28;20519;-69
2022/03/27 10:32:29;;;;;;;8.93;3.07;;;;;;;;;;4987870;28;20426;-69
2022/03/27 10:35:20;;;;;;;12.70;3.60;;;;;;;;;;4989456;28;20448;-69
2022/03/27 10:38:04;;;;;;;11.43;3.77;;;;;;;;;;4970448;28;20186;-69
2022/03/27 10:40:29;;;;;;;10.83;3.70;;;;;;;;;;5003275;28;20979;-69
2022/03/27 10:43:05;;;;;;;12.97;3.70;;;;;;;;;;4986265;28;20433;-69
2022/03/27 10:45:32;;;;;;;13.23;4.13;;;;;;;;;;4988652;28;20180;-69
2022/03/27 10:48:08;;;;;;;11.17;3.63;;;;;;;;;;4985399;28;20455;-69
2022/03/27 10:50:43;;;;;;;10.80;3.20;;;;;;;;;;4986523;28;20447;-69
2022/03/27 10:53:09;;;;;;;9.60;3.50;;;;;;;;;;4986872;28;20420;-69
2022/03/27 10:55:44;;;;;;;7.90;3.03;;;;;;;;;;4989272;28;21071;-69
2022/03/27 10:58:29;;;;;;;10.73;3.53;;;;;;;;;;4986800;28;20205;-69
2022/03/27 11:00:55;;;;;;;13.90;3.43;;;;;;;;;;4986553;28;20525;-69
2022/03/27 11:03:39;;;;;;;7.63;2.83;;;;;;;;;;4986884;28;20503;-69
2022/03/27 11:06:04;;;;;;;10.90;3.37;;;;;;;;;;4986473;28;20674;-69
2022/03/27 11:08:30;;;;;;;10.00;3.10;;;;;;;;;;4988572;28;20532;-69
2022/03/27 11:10:59;;;;;;;11.73;3.50;;;;;;;;;;4985262;28;20265;-69
2022/03/27 11:13:27;;;;;;;12.07;3.40;;;;;;;;;;4983891;28;20182;-69
2022/03/27 11:16:12;;;;;;;9.33;2.57;;;;;;;;;;4986665;28;20849;-69
2022/03/27 11:18:39;;;;;;;10.43;3.73;;;;;;;;;;4985662;28;20459;-69
2022/03/27 11:21:05;;;;;;;13.70;4.27;;;;;;;;;;4987754;28;20422;-69
2022/03/27 11:23:31;;;;;;;7.27;2.70;;;;;;;;;;4985817;28;20476;-69
2022/03/27 11:25:58;;;;;;;12.33;3.10;;;;;;;;;;4987035;28;20181;-69
2022/03/27 11:28:23;;;;;;;7.87;2.77;;;;;;;;;;4986391;28;20453;-69
2022/03/27 11:30:52;;;;;;;6.37;2.53;;;;;;;;;;4988032;28;20432;-69
2022/03/27 11:33:18;;;;;;;12.70;3.90;;;;;;;;;;4986935;28;20698;-69
2022/03/27 11:36:02;;;;;;;12.10;3.13;;;;;;;;;;4987133;28;20792;-69
2022/03/27 11:38:29;;;;;;;9.60;3.00;;;;;;;;;;4987117;28;20456;-69
2022/03/27 11:40:55;;;;;;;9.40;2.73;;;;;;;;;;4986640;28;20471;-69
2022/03/27 11:43:31;;;;;;;11.33;3.60;;;;;;;;;;4985670;28;20457;-69
2022/03/27 11:45:57;;;;;;;9.40;3.30;;;;;;;;;;4986516;28;20487;-69
2022/03/27 11:48:23;;;;;;;10.60;3.00;;;;;;;;;;4986225;28;20449;-69
2022/03/27 11:50:48;;;;;;;10.07;3.03;;;;;;;;;;4984615;28;20436;-69
2022/03/27 11:53:14;;;;;;;11.70;2.73;;;;;;;;;;4985306;28;20228;-69
2022/03/27 11:55:39;;;;;;;11.50;3.57;;;;;;;;;;4987001;28;20178;-69
2022/03/27 11:58:07;;;;;;;8.17;3.07;;;;;;;;;;4985003;28;20764;-69
2022/03/27 12:00:34;;;;;;;8.20;2.93;;;;;;;;;;4987214;28;20550;-69
2022/03/27 12:03:00;;;;;;;5.40;2.30;;;;;;;;;;4987105;28;20803;-69
2022/03/27 12:05:33;;;;;;;9.60;2.80;;;;;;;;;;4984585;28;20460;-69
2022/03/27 12:07:58;;;;;;;6.50;2.70;;;;;;;;;;4985146;28;22171;-69
2022/03/27 12:10:24;;;;;;;6.40;2.20;;;;;;;;;;4987164;28;20429;-69
2022/03/27 12:12:56;;;;;;;5.70;2.43;;;;;;;;;;4985874;28;20598;-69
2022/03/27 12:15:22;;;;;;;5.50;2.37;;;;;;;;;;4979112;28;20174;-70
2022/03/27 12:17:47;;;;;;;5.03;2.50;;;;;;;;;;4966436;28;20432;-70
2022/03/27 12:20:12;;;;;;;8.17;2.30;;;;;;;;;;4977646;28;20193;-70
2022/03/27 12:22:44;;;;;;;5.20;2.27;;;;;;;;;;4979134;28;20181;-68
2022/03/27 12:25:25;;;;;;;6.03;2.10;;;;;;;;;;4992359;28;20666;-68
2022/03/27 12:30:50;;;;;;;5.23;1.93;;;;;;;;;;4973380;28;20468;-68
2022/03/27 12:33:23;;;;;;;7.87;2.27;;;;;;;;;;4975736;28;20472;-68
2022/03/27 12:36:02;;;;;;;5.17;2.20;;;;;;;;;;4973650;28;20228;-68
2022/03/27 12:38:34;;;;;;;3.53;1.40;;;;;;;;;;4978214;28;20440;-67
2022/03/27 12:40:59;;;;;;;6.77;2.20;;;;;;;;;;4976890;28;20421;-69
2022/03/27 12:43:24;;;;;;;4.87;2.17;;;;;;;;;;4973100;28;20443;-70
2022/03/27 12:45:50;;;;;;;8.03;2.27;;;;;;;;;;4972113;28;20267;-72
2022/03/27 12:48:17;;;;;;;4.70;1.90;;;;;;;;;;4979404;28;20198;-70
2022/03/27 12:50:44;;;;;;;2.73;1.57;;;;;;;;;;4975130;28;20178;-71
2022/03/27 12:53:13;;;;;;;4.77;1.73;;;;;;;;;;4976972;28;20459;-72
2022/03/27 12:55:56;;;;;;;11.53;1.87;;;;;;;;;;4978443;28;20494;-71
2022/03/27 12:58:34;;;;;;;5.70;1.90;;;;;;;;;;4977282;28;20461;-72
2022/03/27 13:01:23;;;;;;;15.50;3.23;;;;;;;;;;4975152;28;20437;-70
2022/03/27 13:04:10;;;;;;;7.20;2.23;;;;;;;;;;4968325;28;20485;-71
2022/03/27 13:06:35;;;;;;;4.80;2.10;;;;;;;;;;4981278;28;20452;-71
2022/03/27 13:09:03;;;;;;;4.90;1.70;;;;;;;;;;4972470;28;20961;-71
2022/03/27 13:11:28;;;;;;;5.30;1.50;;;;;;;;;;4978120;28;20173;-71
2022/03/27 13:13:58;;;;;;;4.50;1.90;;;;;;;;;;4979981;28;20440;-69
2022/03/27 13:16:25;;;;;;;2.63;1.37;;;;;;;;;;4978697;28;20206;-70
2022/03/27 13:19:02;;;;;;;3.00;1.30;;;;;;;;;;4979023;28;20488;-69
2022/03/27 13:21:28;;;;;;;3.60;1.47;;;;;;;;;;4976741;28;20436;-72
2022/03/27 13:23:53;;;;;;;3.50;1.50;;;;;;;;;;4978352;28;20976;-71
2022/03/27 13:26:18;;;;;;;5.50;1.63;;;;;;;;;;4977116;28;20425;-70
2022/03/27 13:28:43;;;;;;;8.13;1.93;;;;;;;;;;4976144;28;20344;-70
2022/03/27 13:31:11;;;;;;;4.90;1.80;;;;;;;;;;4980858;28;20224;-71
2022/03/27 13:33:36;;;;;;;6.57;1.90;;;;;;;;;;4981862;28;20178;-70
2022/03/27 13:36:01;;;;;;;4.70;1.90;;;;;;;;;;4983171;28;20439;-68
2022/03/27 13:38:26;;;;;;;8.90;2.27;;;;;;;;;;4982190;28;20198;-71
2022/03/27 13:43:35;;;;;;;5.20;1.87;;;;;;;;;;4978771;28;20744;-72
2022/03/27 13:46:01;;;;;;;7.00;1.50;;;;;;;;;;4976235;28;20563;-72
2022/03/27 13:48:26;;;;;;;13.27;2.30;;;;;;;;;;4993300;23;20728;-72
2022/03/27 13:50:51;;;;;;;5.70;2.23;;;;;;;;;;4991411;28;20880;-71
2022/03/27 13:53:16;;;;;;;6.03;1.70;;;;;;;;;;4992574;28;20185;-71
2022/03/27 13:55:41;;;;;;;6.27;1.63;;;;;;;;;;4997158;28;20193;-70
2022/03/27 13:58:07;;;;;;;7.80;2.00;;;;;;;;;;4999177;28;20197;-71
2022/03/27 14:00:34;;;;;;;5.57;2.00;;;;;;;;;;5004531;28;20597;-71
2022/03/27 14:02:59;;;;;;;5.07;1.97;;;;;;;;;;5017041;28;20257;-70
2022/03/27 14:05:25;;;;;;;6.90;1.80;;;;;;;;;;5020381;28;20456;-71
2022/03/27 14:07:50;;;;;;;5.27;1.63;;;;;;;;;;5001576;28;20231;-71
2022/03/27 14:10:15;;;;;;;8.67;2.23;;;;;;;;;;5001162;28;20165;-71
2022/03/27 14:12:41;;;;;;;5.60;1.80;;;;;;;;;;5004663;28;20197;-71
2022/03/27 14:15:07;;;;;;;6.30;2.17;;;;;;;;;;5003965;28;20244;-70
2022/03/27 14:17:32;;;;;;;8.33;2.47;;;;;;;;;;5001730;28;20217;-71
2022/03/27 14:19:57;;;;;;;7.20;2.90;;;;;;;;;;5002172;28;20735;-71
2022/03/27 14:22:23;;;;;;;5.10;1.93;;;;;;;;;;5001911;28;20746;-71
2022/03/27 14:24:49;;;;;;;4.00;1.57;;;;;;;;;;5003570;28;20611;-72
2022/03/27 14:27:14;;;;;;;5.70;1.90;;;;;;;;;;5003878;28;20184;-72
2022/03/27 14:29:40;;;;;;;7.97;2.43;;;;;;;;;;4999253;28;20530;-73
2022/03/27 14:32:05;;;;;;;5.73;1.90;;;;;;;;;;4998833;28;20538;-73
2022/03/27 14:34:31;;;;;;;7.50;2.20;;;;;;;;;;4997993;28;20570;-72
2022/03/27 14:36:56;;;;;;;8.60;2.27;;;;;;;;;;5000794;28;20174;-72
2022/03/27 14:39:21;;;;;;;5.87;2.10;;;;;;;;;;5001281;28;21205;-71
2022/03/27 14:41:47;;;;;;;10.23;3.20;;;;;;;;;;5000033;28;20192;-72
2022/03/27 14:44:12;;;;;;;10.53;2.90;;;;;;;;;;5002049;28;20296;-72